sensor_id;sensor_type;location;lat;lon;timestamp;temperature;humidity
17053;DHT22;8643;48.824;11.422;2023-04-15T00:01:09;5.30;99.90
17053;DHT22;8643;48.824;11.422;2023-04-15T00:03:39;5.30;99.90
17053;DHT22;8643;48.824;11.422;2023-04-15T00:06:08;5.30;99.90
17053;DHT22;8643;48.824;11.422;2023-04-15T00:08:36;5.30;99.90
17053;DHT22;8643;48.824;11.422;2023-04-15T00:13:34;5.30;99.90
17053;DHT22;8643;48.824;11.422;2023-04-15T00:16:02;5.30;99.90
17053;DHT22;8643;48.824;11.422;2023-04-15T00:18:33;5.30;99.90
17053;DHT22;8643;48.824;11.422;2023-04-15T00:21:03;5.40;99.90
17053;DHT22;8643;48.824;11.422;2023-04-15T00:23:32;5.40;99.90
17053;DHT22;8643;48.824;11.422;2023-04-15T00:28:30;5.50;99.90
17053;DHT22;8643;48.824;11.422;2023-04-15T00:30:59;5.60;99.90
17053;DHT22;8643;48.824;11.422;2023-04-15T00:33:28;5.70;99.90
17053;DHT22;8643;48.824;11.422;2023-04-15T00:35:58;5.80;99.90
17053;DHT22;8643;48.824;11.422;2023-04-15T00:38:26;5.90;99.90
17053;DHT22;8643;48.824;11.422;2023-04-15T00:40:54;6.30;99.90
17053;DHT22;8643;48.824;11.422;2023-04-15T00:43:23;6.00;99.90
17053;DHT22;8643;48.824;11.422;2023-04-15T00:45:53;6.00;99.90
17053;DHT22;8643;48.824;11.422;2023-04-15T00:48:23;6.10;99.90
17053;DHT22;8643;48.824;11.422;2023-04-15T00:50:53;6.10;99.90
17053;DHT22;8643;48.824;11.422;2023-04-15T00:53:24;6.20;99.90
17053;DHT22;8643;48.824;11.422;2023-04-15T00:55:53;6.20;99.90
17053;DHT22;8643;48.824;11.422;2023-04-15T00:58:22;6.20;99.90
17053;DHT22;8643;48.824;11.422;2023-04-15T01:00:51;6.20;99.90
17053;DHT22;8643;48.824;11.422;2023-04-15T01:03:20;6.10;99.90
17053;DHT22;8643;48.824;11.422;2023-04-15T01:05:49;6.10;99.90
17053;DHT22;8643;48.824;11.422;2023-04-15T01:08:18;6.00;99.90
17053;DHT22;8643;48.824;11.422;2023-04-15T01:10:48;5.90;99.90
17053;DHT22;8643;48.824;11.422;2023-04-15T01:13:16;5.90;99.90
17053;DHT22;8643;48.824;11.422;2023-04-15T01:15:45;5.80;99.90
17053;DHT22;8643;48.824;11.422;2023-04-15T01:18:14;5.80;99.90
17053;DHT22;8643;48.824;11.422;2023-04-15T01:20:43;6.20;99.90
17053;DHT22;8643;48.824;11.422;2023-04-15T01:25:44;5.80;99.90
17053;DHT22;8643;48.824;11.422;2023-04-15T01:28:15;5.80;99.90
17053;DHT22;8643;48.824;11.422;2023-04-15T01:30:44;5.80;99.90
17053;DHT22;8643;48.824;11.422;2023-04-15T01:35:45;5.80;99.90
17053;DHT22;8643;48.824;11.422;2023-04-15T01:38:14;5.80;99.90
17053;DHT22;8643;48.824;11.422;2023-04-15T01:40:45;5.80;99.90
17053;DHT22;8643;48.824;11.422;2023-04-15T01:43:13;5.80;99.90
17053;DHT22;8643;48.824;11.422;2023-04-15T01:45:42;5.90;99.90
17053;DHT22;8643;48.824;11.422;2023-04-15T01:48:10;5.90;99.90
17053;DHT22;8643;48.824;11.422;2023-04-15T01:53:08;5.80;99.90
17053;DHT22;8643;48.824;11.422;2023-04-15T01:55:37;5.90;99.90
17053;DHT22;8643;48.824;11.422;2023-04-15T01:58:07;5.90;99.90
17053;DHT22;8643;48.824;11.422;2023-04-15T02:00:35;5.90;99.90
17053;DHT22;8643;48.824;11.422;2023-04-15T02:03:04;6.00;99.90
17053;DHT22;8643;48.824;11.422;2023-04-15T02:05:32;5.90;99.90
17053;DHT22;8643;48.824;11.422;2023-04-15T02:08:03;5.80;99.90
17053;DHT22;8643;48.824;11.422;2023-04-15T02:10:31;5.80;99.90
17053;DHT22;8643;48.824;11.422;2023-04-15T02:13:00;5.80;99.90
17053;DHT22;8643;48.824;11.422;2023-04-15T02:20:03;5.70;99.90
17053;DHT22;8643;48.824;11.422;2023-04-15T02:22:33;5.80;99.90
17053;DHT22;8643;48.824;11.422;2023-04-15T02:25:01;5.80;99.90
17053;DHT22;8643;48.824;11.422;2023-04-15T02:27:31;5.80;99.90
17053;DHT22;8643;48.824;11.422;2023-04-15T02:29:59;5.70;99.90
17053;DHT22;8643;48.824;11.422;2023-04-15T02:32:28;5.70;99.90
17053;DHT22;8643;48.824;11.422;2023-04-15T02:34:56;5.70;99.90
17053;DHT22;8643;48.824;11.422;2023-04-15T02:37:31;5.70;99.90
17053;DHT22;8643;48.824;11.422;2023-04-15T02:40:03;5.80;99.90
17053;DHT22;8643;48.824;11.422;2023-04-15T02:42:34;5.70;99.90
17053;DHT22;8643;48.824;11.422;2023-04-15T02:45:05;6.10;99.90
17053;DHT22;8643;48.824;11.422;2023-04-15T02:47:35;5.80;99.90
17053;DHT22;8643;48.824;11.422;2023-04-15T02:50:08;5.90;99.90
17053;DHT22;8643;48.824;11.422;2023-04-15T02:52:40;6.00;99.90
17053;DHT22;8643;48.824;11.422;2023-04-15T02:55:10;5.90;99.90
17053;DHT22;8643;48.824;11.422;2023-04-15T03:00:10;6.10;99.90
17053;DHT22;8643;48.824;11.422;2023-04-15T03:02:43;6.00;99.90
17053;DHT22;8643;48.824;11.422;2023-04-15T03:05:14;5.80;99.90
17053;DHT22;8643;48.824;11.422;2023-04-15T03:10:18;5.90;99.90
17053;DHT22;8643;48.824;11.422;2023-04-15T03:12:47;5.90;99.90
17053;DHT22;8643;48.824;11.422;2023-04-15T03:15:18;5.80;99.90
17053;DHT22;8643;48.824;11.422;2023-04-15T03:17:50;5.80;99.90
17053;DHT22;8643;48.824;11.422;2023-04-15T03:20:19;5.80;99.90
17053;DHT22;8643;48.824;11.422;2023-04-15T03:22:48;5.70;99.90
17053;DHT22;8643;48.824;11.422;2023-04-15T03:25:19;5.60;99.90
17053;DHT22;8643;48.824;11.422;2023-04-15T03:27:47;5.50;99.90
17053;DHT22;8643;48.824;11.422;2023-04-15T03:30:16;5.60;99.90
17053;DHT22;8643;48.824;11.422;2023-04-15T03:32:45;5.50;99.90
17053;DHT22;8643;48.824;11.422;2023-04-15T03:35:14;5.50;99.90
17053;DHT22;8643;48.824;11.422;2023-04-15T03:37:44;5.50;99.90
17053;DHT22;8643;48.824;11.422;2023-04-15T03:40:14;5.60;99.90
17053;DHT22;8643;48.824;11.422;2023-04-15T03:42:43;5.00;99.90
17053;DHT22;8643;48.824;11.422;2023-04-15T03:45:11;5.60;99.90
17053;DHT22;8643;48.824;11.422;2023-04-15T03:47:40;5.60;99.90
17053;DHT22;8643;48.824;11.422;2023-04-15T03:50:09;5.50;99.90
17053;DHT22;8643;48.824;11.422;2023-04-15T03:52:37;5.60;99.90
17053;DHT22;8643;48.824;11.422;2023-04-15T03:57:36;5.60;99.90
17053;DHT22;8643;48.824;11.422;2023-04-15T04:00:06;5.60;99.90
17053;DHT22;8643;48.824;11.422;2023-04-15T04:02:39;5.50;99.90
17053;DHT22;8643;48.824;11.422;2023-04-15T04:05:08;5.50;99.90
17053;DHT22;8643;48.824;11.422;2023-04-15T04:07:36;5.50;99.90
17053;DHT22;8643;48.824;11.422;2023-04-15T04:10:07;5.50;99.90
17053;DHT22;8643;48.824;11.422;2023-04-15T04:12:36;5.60;99.90
17053;DHT22;8643;48.824;11.422;2023-04-15T04:15:05;5.60;99.90
17053;DHT22;8643;48.824;11.422;2023-04-15T04:20:04;5.50;99.90
17053;DHT22;8643;48.824;11.422;2023-04-15T04:22:37;5.60;99.90
17053;DHT22;8643;48.824;11.422;2023-04-15T04:25:08;5.70;99.90
17053;DHT22;8643;48.824;11.422;2023-04-15T04:27:37;5.70;99.90
17053;DHT22;8643;48.824;11.422;2023-04-15T04:30:06;5.60;99.90
17053;DHT22;8643;48.824;11.422;2023-04-15T04:32:35;5.60;99.90
17053;DHT22;8643;48.824;11.422;2023-04-15T04:35:04;5.60;99.90
17053;DHT22;8643;48.824;11.422;2023-04-15T04:37:33;5.60;99.90
17053;DHT22;8643;48.824;11.422;2023-04-15T04:40:01;5.60;99.90
17053;DHT22;8643;48.824;11.422;2023-04-15T04:42:31;5.60;99.90
17053;DHT22;8643;48.824;11.422;2023-04-15T04:45:00;5.60;99.90
17053;DHT22;8643;48.824;11.422;2023-04-15T04:47:28;5.60;99.90
17053;DHT22;8643;48.824;11.422;2023-04-15T04:49:57;5.70;99.90
17053;DHT22;8643;48.824;11.422;2023-04-15T04:52:25;5.60;99.90
17053;DHT22;8643;48.824;11.422;2023-04-15T04:57:23;5.60;99.90
17053;DHT22;8643;48.824;11.422;2023-04-15T04:59:52;5.60;99.90
17053;DHT22;8643;48.824;11.422;2023-04-15T05:02:21;5.40;99.90
17053;DHT22;8643;48.824;11.422;2023-04-15T05:04:49;5.50;99.90
17053;DHT22;8643;48.824;11.422;2023-04-15T05:07:20;5.40;99.90
17053;DHT22;8643;48.824;11.422;2023-04-15T05:09:49;5.40;99.90
17053;DHT22;8643;48.824;11.422;2023-04-15T05:12:17;5.40;99.90
17053;DHT22;8643;48.824;11.422;2023-04-15T05:14:45;5.40;99.90
17053;DHT22;8643;48.824;11.422;2023-04-15T05:17:15;5.40;99.90
17053;DHT22;8643;48.824;11.422;2023-04-15T05:22:12;5.40;99.90
17053;DHT22;8643;48.824;11.422;2023-04-15T05:24:40;5.50;99.90
17053;DHT22;8643;48.824;11.422;2023-04-15T05:27:09;5.50;99.90
17053;DHT22;8643;48.824;11.422;2023-04-15T05:29:37;5.40;99.90
17053;DHT22;8643;48.824;11.422;2023-04-15T05:32:06;5.40;99.90
17053;DHT22;8643;48.824;11.422;2023-04-15T05:34:36;5.50;99.90
17053;DHT22;8643;48.824;11.422;2023-04-15T05:42:01;5.60;99.90
17053;DHT22;8643;48.824;11.422;2023-04-15T05:44:31;6.40;99.90
17053;DHT22;8643;48.824;11.422;2023-04-15T05:47:00;5.60;99.90
17053;DHT22;8643;48.824;11.422;2023-04-15T05:51:59;5.30;99.90
17053;DHT22;8643;48.824;11.422;2023-04-15T05:54:27;5.60;99.90
17053;DHT22;8643;48.824;11.422;2023-04-15T05:56:56;5.70;99.90
17053;DHT22;8643;48.824;11.422;2023-04-15T05:59:25;5.70;99.90
17053;DHT22;8643;48.824;11.422;2023-04-15T06:01:54;4.70;99.90
17053;DHT22;8643;48.824;11.422;2023-04-15T06:04:22;5.70;99.90
17053;DHT22;8643;48.824;11.422;2023-04-15T06:06:51;5.80;99.90
17053;DHT22;8643;48.824;11.422;2023-04-15T06:09:21;5.90;99.90
17053;DHT22;8643;48.824;11.422;2023-04-15T06:11:50;5.90;99.90
17053;DHT22;8643;48.824;11.422;2023-04-15T06:14:19;6.00;99.90
17053;DHT22;8643;48.824;11.422;2023-04-15T06:19:17;6.10;99.90
17053;DHT22;8643;48.824;11.422;2023-04-15T06:21:46;7.30;99.90
17053;DHT22;8643;48.824;11.422;2023-04-15T06:24:14;6.10;99.90
17053;DHT22;8643;48.824;11.422;2023-04-15T06:26:44;6.20;99.90
17053;DHT22;8643;48.824;11.422;2023-04-15T06:29:12;6.30;99.90
17053;DHT22;8643;48.824;11.422;2023-04-15T06:31:41;6.30;99.90
17053;DHT22;8643;48.824;11.422;2023-04-15T06:34:09;6.30;99.90
17053;DHT22;8643;48.824;11.422;2023-04-15T06:36:38;6.30;99.90
17053;DHT22;8643;48.824;11.422;2023-04-15T06:41:35;6.40;99.90
17053;DHT22;8643;48.824;11.422;2023-04-15T06:44:05;6.40;99.90
17053;DHT22;8643;48.824;11.422;2023-04-15T06:46:34;6.50;99.90
17053;DHT22;8643;48.824;11.422;2023-04-15T06:49:02;6.50;99.90
17053;DHT22;8643;48.824;11.422;2023-04-15T06:51:31;6.60;99.90
17053;DHT22;8643;48.824;11.422;2023-04-15T06:54:01;6.60;99.90
17053;DHT22;8643;48.824;11.422;2023-04-15T06:56:32;6.70;99.90
17053;DHT22;8643;48.824;11.422;2023-04-15T06:59:00;6.80;99.90
17053;DHT22;8643;48.824;11.422;2023-04-15T07:01:30;6.60;99.90
17053;DHT22;8643;48.824;11.422;2023-04-15T07:03:59;6.60;99.90
17053;DHT22;8643;48.824;11.422;2023-04-15T07:08:56;6.70;99.90
17053;DHT22;8643;48.824;11.422;2023-04-15T07:11:25;6.80;99.90
17053;DHT22;8643;48.824;11.422;2023-04-15T07:13:53;6.80;99.90
17053;DHT22;8643;48.824;11.422;2023-04-15T07:16:22;6.70;99.90
17053;DHT22;8643;48.824;11.422;2023-04-15T07:21:23;6.80;99.90
17053;DHT22;8643;48.824;11.422;2023-04-15T07:23:53;6.80;99.90
17053;DHT22;8643;48.824;11.422;2023-04-15T07:26:21;6.80;99.90
17053;DHT22;8643;48.824;11.422;2023-04-15T07:28:50;6.90;99.90
17053;DHT22;8643;48.824;11.422;2023-04-15T07:31:19;6.90;99.90
17053;DHT22;8643;48.824;11.422;2023-04-15T07:33:48;7.00;99.90
17053;DHT22;8643;48.824;11.422;2023-04-15T07:36:18;7.00;99.90
17053;DHT22;8643;48.824;11.422;2023-04-15T07:41:15;7.00;99.90
17053;DHT22;8643;48.824;11.422;2023-04-15T07:43:44;7.00;99.90
17053;DHT22;8643;48.824;11.422;2023-04-15T07:46:12;7.10;99.90
17053;DHT22;8643;48.824;11.422;2023-04-15T07:48:41;7.00;99.90
17053;DHT22;8643;48.824;11.422;2023-04-15T07:53:40;7.00;99.90
17053;DHT22;8643;48.824;11.422;2023-04-15T07:56:08;7.70;99.90
17053;DHT22;8643;48.824;11.422;2023-04-15T07:58:37;7.00;99.90
17053;DHT22;8643;48.824;11.422;2023-04-15T08:01:06;7.10;99.90
17053;DHT22;8643;48.824;11.422;2023-04-15T08:06:03;7.10;99.90
17053;DHT22;8643;48.824;11.422;2023-04-15T08:08:32;7.10;99.90
17053;DHT22;8643;48.824;11.422;2023-04-15T08:11:02;7.10;99.90
17053;DHT22;8643;48.824;11.422;2023-04-15T08:13:31;7.20;99.90
17053;DHT22;8643;48.824;11.422;2023-04-15T08:16:18;6.10;99.90
17053;DHT22;8643;48.824;11.422;2023-04-15T08:18:50;7.20;99.90
17053;DHT22;8643;48.824;11.422;2023-04-15T08:21:20;7.30;99.90
17053;DHT22;8643;48.824;11.422;2023-04-15T08:23:50;7.30;99.90
17053;DHT22;8643;48.824;11.422;2023-04-15T08:26:21;7.40;99.90
17053;DHT22;8643;48.824;11.422;2023-04-15T08:28:50;7.40;99.90
17053;DHT22;8643;48.824;11.422;2023-04-15T08:31:19;7.40;99.90
17053;DHT22;8643;48.824;11.422;2023-04-15T08:33:48;7.40;99.90
17053;DHT22;8643;48.824;11.422;2023-04-15T08:36:18;7.50;99.90
17053;DHT22;8643;48.824;11.422;2023-04-15T08:38:46;7.50;99.90
17053;DHT22;8643;48.824;11.422;2023-04-15T08:43:56;7.60;99.90
17053;DHT22;8643;48.824;11.422;2023-04-15T08:46:26;7.70;99.90
17053;DHT22;8643;48.824;11.422;2023-04-15T08:48:56;7.90;99.90
17053;DHT22;8643;48.824;11.422;2023-04-15T08:51:26;7.90;99.90
17053;DHT22;8643;48.824;11.422;2023-04-15T08:53:56;7.60;99.90
17053;DHT22;8643;48.824;11.422;2023-04-15T08:56:27;8.20;99.90
17053;DHT22;8643;48.824;11.422;2023-04-15T08:58:59;8.30;99.90
17053;DHT22;8643;48.824;11.422;2023-04-15T09:01:31;8.30;99.90
17053;DHT22;8643;48.824;11.422;2023-04-15T09:04:02;8.50;99.90
17053;DHT22;8643;48.824;11.422;2023-04-15T09:06:34;8.50;99.90
17053;DHT22;8643;48.824;11.422;2023-04-15T09:09:02;8.60;99.90
17053;DHT22;8643;48.824;11.422;2023-04-15T09:11:33;8.80;99.90
17053;DHT22;8643;48.824;11.422;2023-04-15T09:16:30;8.90;99.90
17053;DHT22;8643;48.824;11.422;2023-04-15T09:18:59;8.90;99.90
17053;DHT22;8643;48.824;11.422;2023-04-15T09:21:30;9.00;99.90
17053;DHT22;8643;48.824;11.422;2023-04-15T09:24:00;9.00;99.90
17053;DHT22;8643;48.824;11.422;2023-04-15T09:26:32;9.00;99.90
17053;DHT22;8643;48.824;11.422;2023-04-15T09:29:04;9.00;99.90
17053;DHT22;8643;48.824;11.422;2023-04-15T09:31:34;8.30;99.90
17053;DHT22;8643;48.824;11.422;2023-04-15T09:34:02;9.20;99.90
17053;DHT22;8643;48.824;11.422;2023-04-15T09:36:39;9.30;99.90
17053;DHT22;8643;48.824;11.422;2023-04-15T09:39:20;9.20;99.90
17053;DHT22;8643;48.824;11.422;2023-04-15T09:44:42;9.20;99.90
17053;DHT22;8643;48.824;11.422;2023-04-15T09:47:26;9.10;99.90
17053;DHT22;8643;48.824;11.422;2023-04-15T09:49:56;9.00;99.90
17053;DHT22;8643;48.824;11.422;2023-04-15T09:52:24;9.00;99.90
17053;DHT22;8643;48.824;11.422;2023-04-15T09:54:56;9.10;99.90
17053;DHT22;8643;48.824;11.422;2023-04-15T09:57:33;9.20;99.90
17053;DHT22;8643;48.824;11.422;2023-04-15T10:00:06;9.20;99.90
17053;DHT22;8643;48.824;11.422;2023-04-15T10:02:38;9.30;99.90
17053;DHT22;8643;48.824;11.422;2023-04-15T10:05:09;9.30;99.90
17053;DHT22;8643;48.824;11.422;2023-04-15T10:07:41;9.40;99.90
17053;DHT22;8643;48.824;11.422;2023-04-15T10:10:10;9.40;99.90
17053;DHT22;8643;48.824;11.422;2023-04-15T10:12:40;9.40;99.90
17053;DHT22;8643;48.824;11.422;2023-04-15T10:15:14;9.40;99.90
17053;DHT22;8643;48.824;11.422;2023-04-15T10:17:44;9.40;99.90
17053;DHT22;8643;48.824;11.422;2023-04-15T10:20:16;9.40;99.90
17053;DHT22;8643;48.824;11.422;2023-04-15T10:22:48;9.40;99.90
17053;DHT22;8643;48.824;11.422;2023-04-15T10:25:18;9.20;99.90
17053;DHT22;8643;48.824;11.422;2023-04-15T10:27:49;9.10;99.90
17053;DHT22;8643;48.824;11.422;2023-04-15T10:30:20;9.10;99.90
17053;DHT22;8643;48.824;11.422;2023-04-15T10:32:49;8.90;99.90
17053;DHT22;8643;48.824;11.422;2023-04-15T10:35:19;9.00;99.90
17053;DHT22;8643;48.824;11.422;2023-04-15T10:37:49;9.00;99.90
17053;DHT22;8643;48.824;11.422;2023-04-15T10:40:25;9.00;99.90
17053;DHT22;8643;48.824;11.422;2023-04-15T10:42:58;9.00;99.90
17053;DHT22;8643;48.824;11.422;2023-04-15T10:45:32;9.50;99.90
17053;DHT22;8643;48.824;11.422;2023-04-15T10:48:04;9.10;99.90
17053;DHT22;8643;48.824;11.422;2023-04-15T10:50:36;9.20;99.90
17053;DHT22;8643;48.824;11.422;2023-04-15T10:53:05;9.10;99.90
17053;DHT22;8643;48.824;11.422;2023-04-15T10:55:38;9.10;99.90
17053;DHT22;8643;48.824;11.422;2023-04-15T10:58:09;9.80;99.90
17053;DHT22;8643;48.824;11.422;2023-04-15T11:00:38;9.20;99.90
17053;DHT22;8643;48.824;11.422;2023-04-15T11:03:07;9.10;99.90
17053;DHT22;8643;48.824;11.422;2023-04-15T11:05:51;9.00;99.90
17053;DHT22;8643;48.824;11.422;2023-04-15T11:08:52;8.90;99.90
17053;DHT22;8643;48.824;11.422;2023-04-15T11:11:25;9.00;99.90
17053;DHT22;8643;48.824;11.422;2023-04-15T11:14:33;9.00;99.90
17053;DHT22;8643;48.824;11.422;2023-04-15T11:17:03;9.10;99.90
17053;DHT22;8643;48.824;11.422;2023-04-15T11:19:35;9.10;99.90
17053;DHT22;8643;48.824;11.422;2023-04-15T11:22:08;9.30;99.90
17053;DHT22;8643;48.824;11.422;2023-04-15T11:24:46;9.70;99.90
17053;DHT22;8643;48.824;11.422;2023-04-15T11:27:23;9.50;99.90
17053;DHT22;8643;48.824;11.422;2023-04-15T11:29:51;9.40;99.90
17053;DHT22;8643;48.824;11.422;2023-04-15T11:32:22;9.40;99.90
17053;DHT22;8643;48.824;11.422;2023-04-15T11:34:51;9.30;99.90
17053;DHT22;8643;48.824;11.422;2023-04-15T11:37:27;9.30;99.90
17053;DHT22;8643;48.824;11.422;2023-04-15T11:39:56;9.20;99.90
17053;DHT22;8643;48.824;11.422;2023-04-15T11:42:24;8.50;99.90
17053;DHT22;8643;48.824;11.422;2023-04-15T11:45:10;9.10;99.90
17053;DHT22;8643;48.824;11.422;2023-04-15T11:47:42;9.10;99.90
17053;DHT22;8643;48.824;11.422;2023-04-15T11:50:16;9.10;99.90
17053;DHT22;8643;48.824;11.422;2023-04-15T11:52:55;9.10;99.90
17053;DHT22;8643;48.824;11.422;2023-04-15T11:55:25;9.00;99.90
17053;DHT22;8643;48.824;11.422;2023-04-15T11:58:11;8.80;99.90
17053;DHT22;8643;48.824;11.422;2023-04-15T12:00:46;8.80;99.90
17053;DHT22;8643;48.824;11.422;2023-04-15T12:03:22;8.70;99.90
17053;DHT22;8643;48.824;11.422;2023-04-15T12:06:05;8.70;99.90
17053;DHT22;8643;48.824;11.422;2023-04-15T12:09:06;8.70;99.90
17053;DHT22;8643;48.824;11.422;2023-04-15T12:11:41;8.70;99.90
17053;DHT22;8643;48.824;11.422;2023-04-15T12:14:15;8.40;99.90
17053;DHT22;8643;48.824;11.422;2023-04-15T12:16:49;8.30;99.90
17053;DHT22;8643;48.824;11.422;2023-04-15T12:19:25;8.10;99.90
17053;DHT22;8643;48.824;11.422;2023-04-15T12:21:58;6.60;99.90
17053;DHT22;8643;48.824;11.422;2023-04-15T12:24:30;7.90;99.90
17053;DHT22;8643;48.824;11.422;2023-04-15T12:27:02;7.90;99.90
17053;DHT22;8643;48.824;11.422;2023-04-15T12:29:32;7.80;99.90
17053;DHT22;8643;48.824;11.422;2023-04-15T12:32:04;7.80;99.90
17053;DHT22;8643;48.824;11.422;2023-04-15T12:34:37;7.70;99.90
17053;DHT22;8643;48.824;11.422;2023-04-15T12:37:08;7.60;99.90
17053;DHT22;8643;48.824;11.422;2023-04-15T12:39:39;7.50;99.90
17053;DHT22;8643;48.824;11.422;2023-04-15T12:42:09;7.50;99.90
17053;DHT22;8643;48.824;11.422;2023-04-15T12:44:38;7.30;99.90
17053;DHT22;8643;48.824;11.422;2023-04-15T12:47:08;7.30;99.90
17053;DHT22;8643;48.824;11.422;2023-04-15T12:49:39;7.20;99.90
17053;DHT22;8643;48.824;11.422;2023-04-15T12:52:07;7.20;99.90
17053;DHT22;8643;48.824;11.422;2023-04-15T12:57:05;7.10;99.90
17053;DHT22;8643;48.824;11.422;2023-04-15T12:59:33;7.60;99.90
17053;DHT22;8643;48.824;11.422;2023-04-15T13:02:02;7.20;99.90
17053;DHT22;8643;48.824;11.422;2023-04-15T13:04:31;7.20;99.90
17053;DHT22;8643;48.824;11.422;2023-04-15T13:07:01;7.20;99.90
17053;DHT22;8643;48.824;11.422;2023-04-15T13:09:30;7.30;99.90
17053;DHT22;8643;48.824;11.422;2023-04-15T13:11:58;7.40;99.90
17053;DHT22;8643;48.824;11.422;2023-04-15T13:14:27;7.40;99.90
17053;DHT22;8643;48.824;11.422;2023-04-15T13:16:55;7.50;99.90
17053;DHT22;8643;48.824;11.422;2023-04-15T13:19:24;7.60;99.90
17053;DHT22;8643;48.824;11.422;2023-04-15T13:21:53;7.50;99.90
17053;DHT22;8643;48.824;11.422;2023-04-15T13:24:22;7.50;99.90
17053;DHT22;8643;48.824;11.422;2023-04-15T13:26:51;7.40;99.90
17053;DHT22;8643;48.824;11.422;2023-04-15T13:29:19;7.40;99.90
17053;DHT22;8643;48.824;11.422;2023-04-15T13:31:48;7.40;99.90
17053;DHT22;8643;48.824;11.422;2023-04-15T13:34:17;7.30;99.90
17053;DHT22;8643;48.824;11.422;2023-04-15T13:36:45;7.40;99.90
17053;DHT22;8643;48.824;11.422;2023-04-15T13:41:43;7.50;99.90
17053;DHT22;8643;48.824;11.422;2023-04-15T13:44:12;7.60;99.90
17053;DHT22;8643;48.824;11.422;2023-04-15T13:46:40;7.60;99.90
17053;DHT22;8643;48.824;11.422;2023-04-15T13:49:09;7.60;99.90
17053;DHT22;8643;48.824;11.422;2023-04-15T13:51:37;7.80;99.90
17053;DHT22;8643;48.824;11.422;2023-04-15T13:54:06;7.70;99.90
17053;DHT22;8643;48.824;11.422;2023-04-15T13:56:34;7.70;99.90
17053;DHT22;8643;48.824;11.422;2023-04-15T13:59:04;7.70;99.90
17053;DHT22;8643;48.824;11.422;2023-04-15T14:01:34;7.70;99.90
17053;DHT22;8643;48.824;11.422;2023-04-15T14:04:03;7.60;99.90
17053;DHT22;8643;48.824;11.422;2023-04-15T14:06:32;7.60;99.90
17053;DHT22;8643;48.824;11.422;2023-04-15T14:09:00;7.60;99.90
17053;DHT22;8643;48.824;11.422;2023-04-15T14:11:30;7.60;99.90
17053;DHT22;8643;48.824;11.422;2023-04-15T14:13:58;7.60;99.90
17053;DHT22;8643;48.824;11.422;2023-04-15T14:16:28;7.60;99.90
17053;DHT22;8643;48.824;11.422;2023-04-15T14:18:56;7.60;99.90
17053;DHT22;8643;48.824;11.422;2023-04-15T14:21:25;7.70;99.90
17053;DHT22;8643;48.824;11.422;2023-04-15T14:23:54;7.60;99.90
17053;DHT22;8643;48.824;11.422;2023-04-15T14:26:23;7.60;99.90
17053;DHT22;8643;48.824;11.422;2023-04-15T14:28:51;7.70;99.90
17053;DHT22;8643;48.824;11.422;2023-04-15T14:31:20;7.60;99.90
17053;DHT22;8643;48.824;11.422;2023-04-15T14:33:50;7.60;99.90
17053;DHT22;8643;48.824;11.422;2023-04-15T14:36:18;7.60;99.90
17053;DHT22;8643;48.824;11.422;2023-04-15T14:38:47;7.60;99.90
17053;DHT22;8643;48.824;11.422;2023-04-15T14:41:15;7.60;99.90
17053;DHT22;8643;48.824;11.422;2023-04-15T14:43:44;7.90;99.90
17053;DHT22;8643;48.824;11.422;2023-04-15T14:46:12;7.60;99.90
17053;DHT22;8643;48.824;11.422;2023-04-15T14:48:41;7.60;99.90
17053;DHT22;8643;48.824;11.422;2023-04-15T14:51:11;7.60;99.90
17053;DHT22;8643;48.824;11.422;2023-04-15T14:53:39;7.60;99.90
17053;DHT22;8643;48.824;11.422;2023-04-15T14:58:37;7.60;99.90
17053;DHT22;8643;48.824;11.422;2023-04-15T15:01:05;7.60;99.90
17053;DHT22;8643;48.824;11.422;2023-04-15T15:03:33;7.60;99.90
17053;DHT22;8643;48.824;11.422;2023-04-15T15:08:32;7.70;99.90
17053;DHT22;8643;48.824;11.422;2023-04-15T15:11:03;7.60;99.90
17053;DHT22;8643;48.824;11.422;2023-04-15T15:13:31;7.60;99.90
17053;DHT22;8643;48.824;11.422;2023-04-15T15:16:00;7.60;99.90
17053;DHT22;8643;48.824;11.422;2023-04-15T15:18:29;7.60;99.90
17053;DHT22;8643;48.824;11.422;2023-04-15T15:20:58;7.50;99.90
17053;DHT22;8643;48.824;11.422;2023-04-15T15:23:26;7.50;99.90
17053;DHT22;8643;48.824;11.422;2023-04-15T15:25:56;8.10;99.90
17053;DHT22;8643;48.824;11.422;2023-04-15T15:28:25;7.50;99.90
17053;DHT22;8643;48.824;11.422;2023-04-15T15:30:54;7.50;99.90
17053;DHT22;8643;48.824;11.422;2023-04-15T15:33:22;7.60;99.90
17053;DHT22;8643;48.824;11.422;2023-04-15T15:35:51;7.50;99.90
17053;DHT22;8643;48.824;11.422;2023-04-15T15:38:19;7.50;99.90
17053;DHT22;8643;48.824;11.422;2023-04-15T15:40:49;7.50;99.90
17053;DHT22;8643;48.824;11.422;2023-04-15T15:43:19;7.50;99.90
17053;DHT22;8643;48.824;11.422;2023-04-15T15:45:47;7.90;99.90
17053;DHT22;8643;48.824;11.422;2023-04-15T15:50:46;7.50;99.90
17053;DHT22;8643;48.824;11.422;2023-04-15T15:53:15;7.70;99.90
17053;DHT22;8643;48.824;11.422;2023-04-15T15:55:46;7.50;99.90
17053;DHT22;8643;48.824;11.422;2023-04-15T16:00:45;7.50;99.90
17053;DHT22;8643;48.824;11.422;2023-04-15T16:03:14;7.40;99.90
17053;DHT22;8643;48.824;11.422;2023-04-15T16:05:43;7.50;99.90
17053;DHT22;8643;48.824;11.422;2023-04-15T16:08:12;7.40;99.90
17053;DHT22;8643;48.824;11.422;2023-04-15T16:10:41;7.40;99.90
17053;DHT22;8643;48.824;11.422;2023-04-15T16:13:11;7.30;99.90
17053;DHT22;8643;48.824;11.422;2023-04-15T16:15:40;7.30;99.90
17053;DHT22;8643;48.824;11.422;2023-04-15T16:18:09;7.30;99.90
17053;DHT22;8643;48.824;11.422;2023-04-15T16:20:38;7.30;99.90
17053;DHT22;8643;48.824;11.422;2023-04-15T16:23:11;7.20;99.90
17053;DHT22;8643;48.824;11.422;2023-04-15T16:25:42;7.20;99.90
17053;DHT22;8643;48.824;11.422;2023-04-15T16:30:52;7.10;99.90
17053;DHT22;8643;48.824;11.422;2023-04-15T16:33:22;7.30;99.90
17053;DHT22;8643;48.824;11.422;2023-04-15T16:35:51;7.00;99.90
17053;DHT22;8643;48.824;11.422;2023-04-15T16:38:19;7.00;99.90
17053;DHT22;8643;48.824;11.422;2023-04-15T16:40:49;6.90;99.90
17053;DHT22;8643;48.824;11.422;2023-04-15T16:43:18;6.90;99.90
17053;DHT22;8643;48.824;11.422;2023-04-15T16:45:46;6.90;99.90
17053;DHT22;8643;48.824;11.422;2023-04-15T16:48:18;6.90;99.90
17053;DHT22;8643;48.824;11.422;2023-04-15T16:50:48;6.80;99.90
17053;DHT22;8643;48.824;11.422;2023-04-15T16:53:17;6.90;99.90
17053;DHT22;8643;48.824;11.422;2023-04-15T16:55:45;6.90;99.90
17053;DHT22;8643;48.824;11.422;2023-04-15T16:58:15;4.30;99.90
17053;DHT22;8643;48.824;11.422;2023-04-15T17:00:43;6.90;99.90
17053;DHT22;8643;48.824;11.422;2023-04-15T17:03:12;6.80;99.90
17053;DHT22;8643;48.824;11.422;2023-04-15T17:05:40;6.90;99.90
17053;DHT22;8643;48.824;11.422;2023-04-15T17:08:10;6.90;99.90
17053;DHT22;8643;48.824;11.422;2023-04-15T17:13:07;6.90;99.90
17053;DHT22;8643;48.824;11.422;2023-04-15T17:15:36;7.20;99.90
17053;DHT22;8643;48.824;11.422;2023-04-15T17:20:34;7.80;99.90
17053;DHT22;8643;48.824;11.422;2023-04-15T17:23:02;7.20;99.90
17053;DHT22;8643;48.824;11.422;2023-04-15T17:25:32;7.20;99.90
17053;DHT22;8643;48.824;11.422;2023-04-15T17:28:01;7.20;99.90
17053;DHT22;8643;48.824;11.422;2023-04-15T17:30:29;7.30;99.90